createdAt,value
2023-03-15T00:03:56.105Z,9.50
2023-03-15T00:10:46.014Z,4.97
2023-03-15T00:17:28.433Z,6.10
2023-03-15T00:24:11.543Z,5.97
2023-03-15T00:31:23.469Z,6.72
2023-03-15T00:38:07.846Z,5.82
2023-03-15T00:44:50.793Z,7.55
2023-03-15T00:51:33.749Z,6.18
2023-03-15T00:58:16.315Z,5.57
2023-03-15T01:04:58.760Z,6.93
2023-03-15T01:11:41.253Z,8.23
2023-03-15T01:18:23.701Z,8.57
2023-03-15T01:25:06.540Z,8.70
2023-03-15T01:31:48.903Z,6.25
2023-03-15T01:38:32.962Z,9.00
2023-03-15T01:45:53.024Z,8.57
2023-03-15T01:52:41.324Z,7.18
2023-03-15T01:59:34.705Z,8.75
2023-03-15T02:06:19.925Z,5.18
2023-03-15T02:13:12.305Z,6.18
2023-03-15T02:20:16.232Z,7.47
2023-03-15T02:26:58.824Z,7.28
2023-03-15T02:33:45.234Z,5.45
2023-03-15T02:40:29.158Z,4.63
2023-03-15T02:47:20.246Z,5.88
2023-03-15T02:54:02.541Z,6.90
2023-03-15T03:00:44.847Z,6.65
2023-03-15T03:07:27.251Z,5.95
2023-03-15T03:14:15.801Z,5.07
2023-03-15T03:20:59.466Z,4.15
2023-03-15T03:27:42.379Z,4.97
2023-03-15T03:34:26.415Z,4.00
2023-03-15T03:41:12.827Z,3.72
2023-03-15T03:47:55.635Z,4.03
2023-03-15T03:54:38.332Z,4.93
2023-03-15T04:01:22.106Z,7.80
2023-03-15T04:08:07.136Z,6.30
2023-03-15T04:14:54.256Z,7.00
2023-03-15T04:21:38.934Z,7.65
2023-03-15T04:28:38.011Z,8.60
2023-03-15T04:35:39.127Z,8.52
2023-03-15T04:42:56.880Z,11.57
2023-03-15T04:49:57.907Z,5.20
2023-03-15T04:56:47.960Z,7.45
2023-03-15T05:03:57.668Z,8.18
2023-03-15T05:10:51.918Z,7.40
2023-03-15T05:18:00.461Z,9.90
2023-03-15T05:24:56.121Z,4.65
2023-03-15T05:32:05.094Z,10.65
2023-03-15T05:39:04.400Z,8.70
2023-03-15T05:46:11.589Z,7.93
2023-03-15T05:53:14.264Z,6.32
2023-03-15T06:00:11.308Z,8.88
2023-03-15T06:06:56.440Z,9.40
2023-03-15T06:13:39.195Z,12.70
2023-03-15T06:20:29.156Z,8.73
2023-03-15T06:27:15.928Z,6.80
2023-03-15T06:33:58.542Z,6.95
2023-03-15T06:40:41.040Z,10.73
2023-03-15T06:47:23.681Z,6.68
2023-03-15T06:54:06.296Z,5.97
2023-03-15T07:00:50.785Z,6.88
2023-03-15T07:07:33.081Z,7.82
2023-03-15T07:14:15.374Z,8.30
2023-03-15T07:21:03.206Z,7.68
2023-03-15T07:27:45.595Z,10.25
2023-03-15T07:34:28.106Z,10.13
2023-03-15T07:41:11.901Z,14.45
2023-03-15T07:48:00.706Z,7.35
2023-03-15T07:54:42.998Z,10.93
2023-03-15T08:01:25.647Z,7.45
2023-03-15T08:08:08.048Z,7.80
2023-03-15T08:14:51.397Z,5.80
2023-03-15T08:21:33.715Z,13.82
2023-03-15T08:28:16.145Z,7.47
2023-03-15T08:34:58.894Z,3.72
2023-03-15T08:41:41.665Z,9.07
2023-03-15T08:48:24.007Z,11.50
2023-03-15T08:55:07.245Z,3.40
2023-03-15T09:01:49.716Z,9.38
2023-03-15T09:08:33.464Z,10.30
2023-03-15T09:15:16.832Z,7.55
2023-03-15T09:22:10.781Z,8.50
2023-03-15T09:29:01.506Z,6.53
2023-03-15T09:35:43.855Z,5.30
2023-03-15T09:42:56.968Z,5.80
2023-03-15T09:49:52.129Z,4.80
2023-03-15T09:56:39.260Z,8.52
2023-03-15T10:03:42.462Z,8.07
2023-03-15T10:10:32.785Z,4.47
2023-03-15T10:17:37.627Z,5.10
2023-03-15T10:24:37.686Z,4.03
2023-03-15T10:31:36.925Z,5.93
2023-03-15T10:38:27.699Z,2.63
2023-03-15T10:45:23.001Z,3.85
2023-03-15T10:52:05.976Z,6.60
2023-03-15T10:59:05.572Z,4.20
2023-03-15T11:05:54.650Z,4.90
2023-03-15T11:12:37.059Z,3.40
2023-03-15T11:19:22.603Z,4.65
2023-03-15T11:26:06.204Z,3.80
2023-03-15T11:32:49.102Z,5.28
2023-03-15T11:40:10.577Z,3.17
2023-03-15T11:47:01.083Z,5.10
2023-03-15T11:53:55.054Z,5.57
2023-03-15T12:00:37.733Z,1.83
2023-03-15T12:07:20.031Z,2.58
2023-03-15T12:14:02.260Z,4.32
2023-03-15T12:21:11.943Z,3.00
2023-03-15T12:27:57.195Z,3.15
2023-03-15T12:34:54.385Z,4.18
2023-03-15T12:41:43.550Z,2.33
2023-03-15T12:48:27.017Z,8.05
2023-03-15T12:55:16.186Z,1.85
2023-03-15T13:02:00.776Z,3.90
2023-03-15T13:09:20.219Z,4.68
2023-03-15T13:16:15.356Z,4.07
2023-03-15T13:23:14.985Z,8.43
2023-03-15T13:29:57.656Z,4.35
2023-03-15T13:36:57.424Z,5.20
2023-03-15T13:43:39.981Z,4.53
2023-03-15T13:50:23.795Z,4.95
2023-03-15T13:57:07.352Z,3.75
2023-03-15T14:04:01.647Z,3.55
2023-03-15T14:10:44.010Z,2.97
2023-03-15T14:17:31.303Z,2.00
2023-03-15T14:24:34.485Z,3.67
2023-03-15T14:31:32.261Z,3.13
2023-03-15T14:38:18.711Z,4.82
2023-03-15T14:45:01.032Z,2.63
2023-03-15T14:51:43.578Z,2.88
2023-03-15T14:58:25.906Z,3.33
2023-03-15T15:05:40.828Z,4.30
2023-03-15T15:12:23.104Z,2.55
2023-03-15T15:19:05.849Z,3.20
2023-03-15T15:25:50.115Z,2.92
2023-03-15T15:32:33.864Z,3.65
2023-03-15T15:39:26.112Z,2.72
2023-03-15T15:46:12.498Z,2.67
2023-03-15T15:52:55.244Z,5.32
2023-03-15T15:59:37.532Z,2.78
2023-03-15T16:06:21.132Z,1.95
2023-03-15T16:13:04.686Z,2.30
2023-03-15T16:19:47.034Z,3.58
2023-03-15T16:26:29.378Z,3.97
2023-03-15T16:33:17.700Z,3.90
2023-03-15T16:40:01.571Z,3.72
2023-03-15T16:46:44.506Z,4.13
2023-03-15T16:53:26.933Z,3.95
2023-03-15T17:00:16.953Z,4.53
2023-03-15T17:06:59.315Z,4.15
2023-03-15T17:13:42.235Z,4.07
2023-03-15T17:20:29.344Z,2.85
2023-03-15T17:27:22.895Z,2.80
2023-03-15T17:34:05.415Z,4.13
2023-03-15T17:40:48.674Z,3.80
2023-03-15T17:47:32.375Z,3.42
2023-03-15T17:54:17.668Z,3.78
2023-03-15T18:01:00.452Z,3.97
2023-03-15T18:07:57.811Z,5.60
2023-03-15T18:14:40.723Z,3.05
2023-03-15T18:21:26.228Z,4.30
2023-03-15T18:28:08.858Z,3.90
2023-03-15T18:34:51.548Z,6.18
2023-03-15T18:41:33.733Z,4.95
2023-03-15T18:48:16.261Z,6.95
2023-03-15T18:54:59.053Z,7.13
2023-03-15T19:01:42.117Z,5.50
2023-03-15T19:08:24.452Z,12.82
2023-03-15T19:15:11.666Z,6.43
2023-03-15T19:21:55.260Z,6.60
2023-03-15T19:28:37.565Z,7.30
2023-03-15T19:35:20.773Z,10.43
2023-03-15T19:42:04.223Z,8.00
2023-03-15T19:48:46.536Z,9.90
2023-03-15T19:55:31.503Z,8.85
2023-03-15T20:02:14.195Z,9.13
2023-03-15T20:08:56.524Z,8.68
2023-03-15T20:15:38.885Z,9.07
2023-03-15T20:22:21.453Z,10.23
2023-03-15T20:29:03.896Z,8.57
2023-03-15T20:35:46.265Z,10.90
2023-03-15T20:42:28.584Z,9.60
2023-03-15T20:49:10.917Z,10.73
2023-03-15T20:55:53.347Z,9.20
2023-03-15T21:02:35.664Z,8.93
2023-03-15T21:09:18.076Z,10.75
2023-03-15T21:16:02.842Z,13.52
2023-03-15T21:22:45.224Z,12.40
2023-03-15T21:29:27.528Z,11.13
2023-03-15T21:36:09.861Z,13.90
2023-03-15T21:42:52.145Z,14.23
2023-03-15T21:49:34.709Z,22.38
2023-03-15T21:56:17.292Z,15.90
2023-03-15T22:02:59.628Z,14.88
2023-03-15T22:09:43.186Z,18.13
2023-03-15T22:16:25.638Z,14.55
2023-03-15T22:23:08.171Z,17.95
2023-03-15T22:29:52.163Z,18.67
2023-03-15T22:36:34.538Z,16.77
2023-03-15T22:43:17.754Z,14.50
2023-03-15T22:50:00.152Z,23.20
2023-03-15T22:56:42.593Z,17.00
2023-03-15T23:03:26.273Z,20.95
2023-03-15T23:10:09.365Z,19.88
2023-03-15T23:16:52.213Z,16.00
2023-03-15T23:23:36.807Z,14.50
2023-03-15T23:30:19.235Z,14.93
2023-03-15T23:37:01.542Z,16.17
2023-03-15T23:43:43.797Z,17.77
2023-03-15T23:50:27.091Z,17.52
2023-03-15T23:57:12.250Z,24.55
